sensor_id;sensor_type;location;lat;lon;timestamp;P1;durP1;ratioP1;P2;durP2;ratioP2
80653;SDS011;70020;45.524;10.240;2023-05-14T00:00:53;5.43;;;2.50;;
80653;SDS011;70020;45.524;10.240;2023-05-14T00:03:19;4.63;;;2.65;;
80653;SDS011;70020;45.524;10.240;2023-05-14T00:05:44;6.63;;;2.40;;
80653;SDS011;70020;45.524;10.240;2023-05-14T00:08:11;4.93;;;2.55;;
80653;SDS011;70020;45.524;10.240;2023-05-14T00:10:36;5.93;;;2.78;;
80653;SDS011;70020;45.524;10.240;2023-05-14T00:13:02;4.40;;;2.20;;
80653;SDS011;70020;45.524;10.240;2023-05-14T00:15:28;4.15;;;2.30;;
80653;SDS011;70020;45.524;10.240;2023-05-14T00:17:54;4.13;;;2.20;;
80653;SDS011;70020;45.524;10.240;2023-05-14T00:20:20;4.75;;;2.55;;
80653;SDS011;70020;45.524;10.240;2023-05-14T00:22:45;4.43;;;2.27;;
80653;SDS011;70020;45.524;10.240;2023-05-14T00:25:11;7.03;;;2.60;;
80653;SDS011;70020;45.524;10.240;2023-05-14T00:27:37;4.03;;;2.33;;
80653;SDS011;70020;45.524;10.240;2023-05-14T00:30:03;4.67;;;2.33;;
80653;SDS011;70020;45.524;10.240;2023-05-14T00:32:30;5.10;;;2.67;;
80653;SDS011;70020;45.524;10.240;2023-05-14T00:34:56;4.22;;;2.55;;
80653;SDS011;70020;45.524;10.240;2023-05-14T00:37:22;6.80;;;2.90;;
80653;SDS011;70020;45.524;10.240;2023-05-14T00:39:49;2.88;;;2.40;;
80653;SDS011;70020;45.524;10.240;2023-05-14T00:42:14;4.93;;;2.30;;
80653;SDS011;70020;45.524;10.240;2023-05-14T00:44:40;4.50;;;2.50;;
80653;SDS011;70020;45.524;10.240;2023-05-14T00:47:06;4.30;;;2.53;;
80653;SDS011;70020;45.524;10.240;2023-05-14T00:49:32;4.43;;;2.58;;
80653;SDS011;70020;45.524;10.240;2023-05-14T00:51:59;6.05;;;2.60;;
80653;SDS011;70020;45.524;10.240;2023-05-14T00:54:25;5.10;;;2.40;;
80653;SDS011;70020;45.524;10.240;2023-05-14T00:56:52;5.82;;;2.22;;
80653;SDS011;70020;45.524;10.240;2023-05-14T00:59:19;5.70;;;2.95;;
80653;SDS011;70020;45.524;10.240;2023-05-14T01:01:45;3.78;;;2.40;;
80653;SDS011;70020;45.524;10.240;2023-05-14T01:04:10;4.23;;;2.73;;
80653;SDS011;70020;45.524;10.240;2023-05-14T01:09:21;4.32;;;2.50;;
80653;SDS011;70020;45.524;10.240;2023-05-14T01:11:59;3.70;;;2.42;;
80653;SDS011;70020;45.524;10.240;2023-05-14T01:14:33;5.32;;;2.53;;
80653;SDS011;70020;45.524;10.240;2023-05-14T01:17:01;4.40;;;2.55;;
80653;SDS011;70020;45.524;10.240;2023-05-14T01:19:32;7.78;;;2.75;;
80653;SDS011;70020;45.524;10.240;2023-05-14T01:22:02;4.47;;;2.67;;
80653;SDS011;70020;45.524;10.240;2023-05-14T01:24:31;4.22;;;2.53;;
80653;SDS011;70020;45.524;10.240;2023-05-14T01:27:00;4.10;;;2.47;;
80653;SDS011;70020;45.524;10.240;2023-05-14T01:29:32;5.38;;;2.53;;
80653;SDS011;70020;45.524;10.240;2023-05-14T01:32:00;5.28;;;2.30;;
80653;SDS011;70020;45.524;10.240;2023-05-14T01:34:30;7.57;;;2.60;;
80653;SDS011;70020;45.524;10.240;2023-05-14T01:36:57;5.15;;;2.28;;
80653;SDS011;70020;45.524;10.240;2023-05-14T01:39:24;4.28;;;2.28;;
80653;SDS011;70020;45.524;10.240;2023-05-14T01:41:52;4.28;;;2.22;;
80653;SDS011;70020;45.524;10.240;2023-05-14T01:44:18;4.88;;;2.20;;
80653;SDS011;70020;45.524;10.240;2023-05-14T01:46:46;4.85;;;2.42;;
80653;SDS011;70020;45.524;10.240;2023-05-14T01:49:11;3.50;;;2.07;;
80653;SDS011;70020;45.524;10.240;2023-05-14T01:51:37;4.93;;;2.20;;
80653;SDS011;70020;45.524;10.240;2023-05-14T01:54:02;4.63;;;2.13;;
80653;SDS011;70020;45.524;10.240;2023-05-14T01:56:28;3.27;;;1.47;;
80653;SDS011;70020;45.524;10.240;2023-05-14T01:58:54;4.05;;;2.00;;
80653;SDS011;70020;45.524;10.240;2023-05-14T02:01:20;5.00;;;1.80;;
80653;SDS011;70020;45.524;10.240;2023-05-14T02:03:46;4.00;;;1.75;;
80653;SDS011;70020;45.524;10.240;2023-05-14T02:06:12;3.28;;;1.70;;
80653;SDS011;70020;45.524;10.240;2023-05-14T02:08:37;6.20;;;1.80;;
80653;SDS011;70020;45.524;10.240;2023-05-14T02:11:03;2.55;;;1.50;;
80653;SDS011;70020;45.524;10.240;2023-05-14T02:13:29;3.60;;;1.98;;
80653;SDS011;70020;45.524;10.240;2023-05-14T02:15:54;3.33;;;1.60;;
80653;SDS011;70020;45.524;10.240;2023-05-14T02:18:20;5.72;;;2.03;;
80653;SDS011;70020;45.524;10.240;2023-05-14T02:20:46;3.35;;;1.90;;
80653;SDS011;70020;45.524;10.240;2023-05-14T02:23:12;5.50;;;1.67;;
80653;SDS011;70020;45.524;10.240;2023-05-14T02:25:37;2.65;;;1.50;;
80653;SDS011;70020;45.524;10.240;2023-05-14T02:28:03;4.70;;;1.90;;
80653;SDS011;70020;45.524;10.240;2023-05-14T02:30:29;3.42;;;1.90;;
80653;SDS011;70020;45.524;10.240;2023-05-14T02:32:55;2.88;;;1.90;;
80653;SDS011;70020;45.524;10.240;2023-05-14T02:35:21;3.47;;;1.87;;
80653;SDS011;70020;45.524;10.240;2023-05-14T02:37:47;2.37;;;1.70;;
80653;SDS011;70020;45.524;10.240;2023-05-14T02:40:12;4.90;;;1.70;;
80653;SDS011;70020;45.524;10.240;2023-05-14T02:42:39;2.83;;;1.98;;
80653;SDS011;70020;45.524;10.240;2023-05-14T02:45:05;2.20;;;1.90;;
80653;SDS011;70020;45.524;10.240;2023-05-14T02:47:31;3.53;;;2.00;;
80653;SDS011;70020;45.524;10.240;2023-05-14T02:49:57;5.83;;;2.17;;
80653;SDS011;70020;45.524;10.240;2023-05-14T02:52:23;3.38;;;2.25;;
80653;SDS011;70020;45.524;10.240;2023-05-14T02:54:49;3.30;;;1.98;;
80653;SDS011;70020;45.524;10.240;2023-05-14T02:57:15;2.90;;;1.92;;
80653;SDS011;70020;45.524;10.240;2023-05-14T02:59:44;6.95;;;2.03;;
80653;SDS011;70020;45.524;10.240;2023-05-14T03:02:10;3.38;;;1.95;;
80653;SDS011;70020;45.524;10.240;2023-05-14T03:04:35;3.30;;;1.60;;
80653;SDS011;70020;45.524;10.240;2023-05-14T03:07:01;3.03;;;1.52;;
80653;SDS011;70020;45.524;10.240;2023-05-14T03:09:30;4.93;;;1.60;;
80653;SDS011;70020;45.524;10.240;2023-05-14T03:11:56;3.33;;;1.60;;
80653;SDS011;70020;45.524;10.240;2023-05-14T03:14:23;4.85;;;1.70;;
80653;SDS011;70020;45.524;10.240;2023-05-14T03:16:48;5.03;;;2.40;;
80653;SDS011;70020;45.524;10.240;2023-05-14T03:19:15;3.67;;;1.63;;
80653;SDS011;70020;45.524;10.240;2023-05-14T03:21:40;2.58;;;1.88;;
80653;SDS011;70020;45.524;10.240;2023-05-14T03:24:06;4.30;;;1.70;;
80653;SDS011;70020;45.524;10.240;2023-05-14T03:28:58;4.88;;;2.00;;
80653;SDS011;70020;45.524;10.240;2023-05-14T03:31:24;2.60;;;1.70;;
80653;SDS011;70020;45.524;10.240;2023-05-14T03:33:50;2.58;;;1.52;;
80653;SDS011;70020;45.524;10.240;2023-05-14T03:36:16;3.25;;;1.65;;
80653;SDS011;70020;45.524;10.240;2023-05-14T03:38:42;2.70;;;1.85;;
80653;SDS011;70020;45.524;10.240;2023-05-14T03:41:07;3.77;;;1.80;;
80653;SDS011;70020;45.524;10.240;2023-05-14T03:43:33;4.30;;;1.80;;
80653;SDS011;70020;45.524;10.240;2023-05-14T03:45:59;4.53;;;1.92;;
80653;SDS011;70020;45.524;10.240;2023-05-14T03:48:25;5.75;;;1.80;;
80653;SDS011;70020;45.524;10.240;2023-05-14T03:50:51;3.03;;;1.60;;
80653;SDS011;70020;45.524;10.240;2023-05-14T03:53:16;4.83;;;1.70;;
80653;SDS011;70020;45.524;10.240;2023-05-14T03:55:41;2.93;;;1.50;;
80653;SDS011;70020;45.524;10.240;2023-05-14T03:58:07;3.95;;;1.50;;
80653;SDS011;70020;45.524;10.240;2023-05-14T04:00:41;3.63;;;1.92;;
80653;SDS011;70020;45.524;10.240;2023-05-14T04:03:07;4.88;;;1.67;;
80653;SDS011;70020;45.524;10.240;2023-05-14T04:05:33;2.83;;;1.83;;
80653;SDS011;70020;45.524;10.240;2023-05-14T04:10:24;3.15;;;1.30;;
80653;SDS011;70020;45.524;10.240;2023-05-14T04:12:50;1.98;;;1.75;;
80653;SDS011;70020;45.524;10.240;2023-05-14T04:15:16;5.47;;;1.65;;
80653;SDS011;70020;45.524;10.240;2023-05-14T04:17:42;4.07;;;1.85;;
80653;SDS011;70020;45.524;10.240;2023-05-14T04:20:08;4.55;;;1.52;;
80653;SDS011;70020;45.524;10.240;2023-05-14T04:22:34;4.03;;;1.73;;
80653;SDS011;70020;45.524;10.240;2023-05-14T04:25:00;5.30;;;1.97;;
80653;SDS011;70020;45.524;10.240;2023-05-14T04:27:27;4.68;;;1.88;;
80653;SDS011;70020;45.524;10.240;2023-05-14T04:29:52;4.68;;;1.85;;
80653;SDS011;70020;45.524;10.240;2023-05-14T04:32:18;2.10;;;1.60;;
80653;SDS011;70020;45.524;10.240;2023-05-14T04:34:44;4.05;;;1.65;;
80653;SDS011;70020;45.524;10.240;2023-05-14T04:39:36;2.33;;;1.50;;
80653;SDS011;70020;45.524;10.240;2023-05-14T04:42:02;3.37;;;1.70;;
80653;SDS011;70020;45.524;10.240;2023-05-14T04:44:29;3.38;;;1.60;;
80653;SDS011;70020;45.524;10.240;2023-05-14T04:46:54;2.43;;;1.50;;
80653;SDS011;70020;45.524;10.240;2023-05-14T04:49:20;1.75;;;1.38;;
80653;SDS011;70020;45.524;10.240;2023-05-14T04:51:46;3.43;;;1.50;;
80653;SDS011;70020;45.524;10.240;2023-05-14T04:54:12;3.42;;;1.50;;
80653;SDS011;70020;45.524;10.240;2023-05-14T04:56:38;1.60;;;1.40;;
80653;SDS011;70020;45.524;10.240;2023-05-14T04:59:03;2.07;;;1.70;;
80653;SDS011;70020;45.524;10.240;2023-05-14T05:01:29;2.53;;;1.50;;
80653;SDS011;70020;45.524;10.240;2023-05-14T05:03:57;3.22;;;2.05;;
80653;SDS011;70020;45.524;10.240;2023-05-14T05:06:22;3.90;;;2.27;;
80653;SDS011;70020;45.524;10.240;2023-05-14T05:08:48;3.67;;;1.73;;
80653;SDS011;70020;45.524;10.240;2023-05-14T05:11:13;6.28;;;2.15;;
80653;SDS011;70020;45.524;10.240;2023-05-14T05:13:39;3.45;;;1.98;;
80653;SDS011;70020;45.524;10.240;2023-05-14T05:16:05;3.45;;;2.00;;
80653;SDS011;70020;45.524;10.240;2023-05-14T05:18:31;5.55;;;2.28;;
80653;SDS011;70020;45.524;10.240;2023-05-14T05:20:57;3.22;;;2.55;;
80653;SDS011;70020;45.524;10.240;2023-05-14T05:23:23;6.15;;;2.80;;
80653;SDS011;70020;45.524;10.240;2023-05-14T05:25:49;8.75;;;3.63;;
80653;SDS011;70020;45.524;10.240;2023-05-14T05:28:15;7.00;;;3.33;;
80653;SDS011;70020;45.524;10.240;2023-05-14T05:30:40;9.45;;;3.47;;
80653;SDS011;70020;45.524;10.240;2023-05-14T05:33:08;8.35;;;3.60;;
80653;SDS011;70020;45.524;10.240;2023-05-14T05:35:34;10.30;;;3.17;;
80653;SDS011;70020;45.524;10.240;2023-05-14T05:38:00;6.15;;;2.90;;
80653;SDS011;70020;45.524;10.240;2023-05-14T05:40:26;4.85;;;3.08;;
80653;SDS011;70020;45.524;10.240;2023-05-14T05:42:52;8.60;;;3.13;;
80653;SDS011;70020;45.524;10.240;2023-05-14T05:45:18;5.65;;;3.58;;
80653;SDS011;70020;45.524;10.240;2023-05-14T05:50:10;12.57;;;4.17;;
80653;SDS011;70020;45.524;10.240;2023-05-14T05:52:35;6.85;;;3.70;;
80653;SDS011;70020;45.524;10.240;2023-05-14T05:55:02;6.38;;;3.85;;
80653;SDS011;70020;45.524;10.240;2023-05-14T05:57:27;7.18;;;4.43;;
80653;SDS011;70020;45.524;10.240;2023-05-14T05:59:53;8.43;;;4.22;;
80653;SDS011;70020;45.524;10.240;2023-05-14T06:02:19;7.55;;;4.40;;
80653;SDS011;70020;45.524;10.240;2023-05-14T06:04:44;7.60;;;3.57;;
80653;SDS011;70020;45.524;10.240;2023-05-14T06:07:10;8.93;;;3.90;;
80653;SDS011;70020;45.524;10.240;2023-05-14T06:09:36;5.60;;;3.70;;
80653;SDS011;70020;45.524;10.240;2023-05-14T06:12:01;7.57;;;3.87;;
80653;SDS011;70020;45.524;10.240;2023-05-14T06:14:28;6.40;;;3.78;;
80653;SDS011;70020;45.524;10.240;2023-05-14T06:16:54;7.22;;;3.83;;
80653;SDS011;70020;45.524;10.240;2023-05-14T06:19:20;5.10;;;3.20;;
80653;SDS011;70020;45.524;10.240;2023-05-14T06:24:14;4.30;;;2.90;;
80653;SDS011;70020;45.524;10.240;2023-05-14T06:26:40;7.03;;;3.47;;
80653;SDS011;70020;45.524;10.240;2023-05-14T06:29:06;5.90;;;3.47;;
80653;SDS011;70020;45.524;10.240;2023-05-14T06:31:32;4.85;;;3.55;;
80653;SDS011;70020;45.524;10.240;2023-05-14T06:34:00;3.97;;;3.17;;
80653;SDS011;70020;45.524;10.240;2023-05-14T06:36:26;5.78;;;3.95;;
80653;SDS011;70020;45.524;10.240;2023-05-14T06:38:52;5.45;;;3.60;;
80653;SDS011;70020;45.524;10.240;2023-05-14T06:41:18;15.88;;;4.07;;
80653;SDS011;70020;45.524;10.240;2023-05-14T06:46:14;6.63;;;3.88;;
80653;SDS011;70020;45.524;10.240;2023-05-14T06:48:40;7.95;;;4.50;;
80653;SDS011;70020;45.524;10.240;2023-05-14T06:51:05;9.60;;;5.37;;
80653;SDS011;70020;45.524;10.240;2023-05-14T06:53:30;11.10;;;5.67;;
80653;SDS011;70020;45.524;10.240;2023-05-14T06:55:56;7.22;;;4.63;;
80653;SDS011;70020;45.524;10.240;2023-05-14T06:58:22;7.83;;;5.00;;
80653;SDS011;70020;45.524;10.240;2023-05-14T07:00:47;5.70;;;4.30;;
80653;SDS011;70020;45.524;10.240;2023-05-14T07:03:13;7.88;;;4.22;;
80653;SDS011;70020;45.524;10.240;2023-05-14T07:05:38;6.55;;;4.65;;
80653;SDS011;70020;45.524;10.240;2023-05-14T07:10:31;5.97;;;3.30;;
80653;SDS011;70020;45.524;10.240;2023-05-14T07:12:56;7.75;;;3.20;;
80653;SDS011;70020;45.524;10.240;2023-05-14T07:15:22;4.73;;;3.03;;
80653;SDS011;70020;45.524;10.240;2023-05-14T07:17:48;5.45;;;3.08;;
80653;SDS011;70020;45.524;10.240;2023-05-14T07:20:13;5.00;;;2.85;;
80653;SDS011;70020;45.524;10.240;2023-05-14T07:22:39;4.63;;;3.13;;
80653;SDS011;70020;45.524;10.240;2023-05-14T07:25:08;3.45;;;2.45;;
80653;SDS011;70020;45.524;10.240;2023-05-14T07:27:37;5.40;;;2.45;;
80653;SDS011;70020;45.524;10.240;2023-05-14T07:32:28;3.60;;;2.75;;
80653;SDS011;70020;45.524;10.240;2023-05-14T07:34:57;4.83;;;3.00;;
80653;SDS011;70020;45.524;10.240;2023-05-14T07:37:23;8.43;;;3.20;;
80653;SDS011;70020;45.524;10.240;2023-05-14T07:39:50;5.85;;;3.03;;
80653;SDS011;70020;45.524;10.240;2023-05-14T07:44:45;5.70;;;3.03;;
80653;SDS011;70020;45.524;10.240;2023-05-14T07:47:10;5.47;;;3.35;;
80653;SDS011;70020;45.524;10.240;2023-05-14T07:49:36;4.75;;;3.13;;
80653;SDS011;70020;45.524;10.240;2023-05-14T07:52:01;3.20;;;2.40;;
80653;SDS011;70020;45.524;10.240;2023-05-14T07:54:27;4.68;;;2.90;;
80653;SDS011;70020;45.524;10.240;2023-05-14T07:56:53;5.53;;;2.90;;
80653;SDS011;70020;45.524;10.240;2023-05-14T07:59:19;4.97;;;2.78;;
80653;SDS011;70020;45.524;10.240;2023-05-14T08:01:45;5.85;;;2.53;;
80653;SDS011;70020;45.524;10.240;2023-05-14T08:04:10;4.27;;;2.43;;
80653;SDS011;70020;45.524;10.240;2023-05-14T08:06:36;4.03;;;2.40;;
80653;SDS011;70020;45.524;10.240;2023-05-14T08:09:02;4.13;;;2.50;;
80653;SDS011;70020;45.524;10.240;2023-05-14T08:11:29;3.78;;;2.80;;
80653;SDS011;70020;45.524;10.240;2023-05-14T08:16:21;3.00;;;2.47;;
80653;SDS011;70020;45.524;10.240;2023-05-14T08:21:13;3.13;;;2.25;;
80653;SDS011;70020;45.524;10.240;2023-05-14T08:23:39;3.90;;;2.45;;
80653;SDS011;70020;45.524;10.240;2023-05-14T08:26:04;5.63;;;2.80;;
80653;SDS011;70020;45.524;10.240;2023-05-14T08:28:30;4.90;;;2.43;;
80653;SDS011;70020;45.524;10.240;2023-05-14T08:30:55;3.90;;;2.60;;
80653;SDS011;70020;45.524;10.240;2023-05-14T08:33:21;6.13;;;2.72;;
80653;SDS011;70020;45.524;10.240;2023-05-14T08:38:20;8.23;;;3.10;;
80653;SDS011;70020;45.524;10.240;2023-05-14T08:40:46;4.28;;;2.60;;
80653;SDS011;70020;45.524;10.240;2023-05-14T08:43:13;8.65;;;2.75;;
80653;SDS011;70020;45.524;10.240;2023-05-14T08:45:44;5.13;;;2.20;;
80653;SDS011;70020;45.524;10.240;2023-05-14T08:48:13;3.60;;;2.42;;
80653;SDS011;70020;45.524;10.240;2023-05-14T08:50:43;5.70;;;2.83;;
80653;SDS011;70020;45.524;10.240;2023-05-14T08:53:09;2.95;;;2.22;;
80653;SDS011;70020;45.524;10.240;2023-05-14T08:55:35;4.28;;;2.00;;
80653;SDS011;70020;45.524;10.240;2023-05-14T08:58:02;4.45;;;2.15;;
80653;SDS011;70020;45.524;10.240;2023-05-14T09:00:27;2.65;;;1.90;;
80653;SDS011;70020;45.524;10.240;2023-05-14T09:02:54;3.28;;;1.92;;
80653;SDS011;70020;45.524;10.240;2023-05-14T09:05:20;6.55;;;2.15;;
80653;SDS011;70020;45.524;10.240;2023-05-14T09:07:46;3.63;;;2.13;;
80653;SDS011;70020;45.524;10.240;2023-05-14T09:10:12;6.65;;;2.30;;
80653;SDS011;70020;45.524;10.240;2023-05-14T09:12:40;5.07;;;2.30;;
80653;SDS011;70020;45.524;10.240;2023-05-14T09:15:05;4.77;;;2.00;;
80653;SDS011;70020;45.524;10.240;2023-05-14T09:17:31;3.83;;;1.83;;
80653;SDS011;70020;45.524;10.240;2023-05-14T09:19:58;5.28;;;2.97;;
80653;SDS011;70020;45.524;10.240;2023-05-14T09:22:24;3.90;;;2.22;;
80653;SDS011;70020;45.524;10.240;2023-05-14T09:25:06;2.30;;;1.70;;
80653;SDS011;70020;45.524;10.240;2023-05-14T09:27:34;1.90;;;1.20;;
80653;SDS011;70020;45.524;10.240;2023-05-14T09:30:12;2.63;;;1.60;;
80653;SDS011;70020;45.524;10.240;2023-05-14T09:32:39;2.65;;;1.70;;
80653;SDS011;70020;45.524;10.240;2023-05-14T09:35:17;1.90;;;1.20;;
80653;SDS011;70020;45.524;10.240;2023-05-14T09:37:51;2.35;;;1.70;;
80653;SDS011;70020;45.524;10.240;2023-05-14T09:40:19;3.45;;;2.03;;
80653;SDS011;70020;45.524;10.240;2023-05-14T09:42:45;3.63;;;2.40;;
80653;SDS011;70020;45.524;10.240;2023-05-14T09:45:13;7.05;;;2.15;;
80653;SDS011;70020;45.524;10.240;2023-05-14T09:47:39;9.48;;;5.28;;
80653;SDS011;70020;45.524;10.240;2023-05-14T09:50:05;4.72;;;2.50;;
80653;SDS011;70020;45.524;10.240;2023-05-14T09:52:31;4.20;;;2.38;;
80653;SDS011;70020;45.524;10.240;2023-05-14T09:54:58;4.88;;;3.03;;
80653;SDS011;70020;45.524;10.240;2023-05-14T09:57:24;4.72;;;2.42;;
80653;SDS011;70020;45.524;10.240;2023-05-14T09:59:51;3.22;;;2.40;;
80653;SDS011;70020;45.524;10.240;2023-05-14T10:04:49;3.63;;;2.60;;
80653;SDS011;70020;45.524;10.240;2023-05-14T10:07:28;4.13;;;2.63;;
80653;SDS011;70020;45.524;10.240;2023-05-14T10:10:00;5.22;;;2.83;;
80653;SDS011;70020;45.524;10.240;2023-05-14T10:12:28;35.00;;;22.50;;
80653;SDS011;70020;45.524;10.240;2023-05-14T10:15:00;12.57;;;6.13;;
80653;SDS011;70020;45.524;10.240;2023-05-14T10:17:30;4.88;;;3.53;;
80653;SDS011;70020;45.524;10.240;2023-05-14T10:19:58;5.35;;;2.80;;
80653;SDS011;70020;45.524;10.240;2023-05-14T10:22:28;4.70;;;3.05;;
80653;SDS011;70020;45.524;10.240;2023-05-14T10:24:57;4.28;;;2.47;;
80653;SDS011;70020;45.524;10.240;2023-05-14T10:27:24;3.60;;;2.42;;
80653;SDS011;70020;45.524;10.240;2023-05-14T10:29:51;5.20;;;2.90;;
80653;SDS011;70020;45.524;10.240;2023-05-14T10:32:18;3.88;;;2.80;;
80653;SDS011;70020;45.524;10.240;2023-05-14T10:34:46;7.10;;;3.22;;
80653;SDS011;70020;45.524;10.240;2023-05-14T10:37:24;7.00;;;3.28;;
80653;SDS011;70020;45.524;10.240;2023-05-14T10:39:57;3.70;;;2.80;;
80653;SDS011;70020;45.524;10.240;2023-05-14T10:42:33;6.05;;;2.33;;
80653;SDS011;70020;45.524;10.240;2023-05-14T10:45:05;4.32;;;2.65;;
80653;SDS011;70020;45.524;10.240;2023-05-14T10:47:32;4.82;;;3.00;;
80653;SDS011;70020;45.524;10.240;2023-05-14T10:50:10;4.28;;;2.50;;
80653;SDS011;70020;45.524;10.240;2023-05-14T10:52:36;4.97;;;2.42;;
80653;SDS011;70020;45.524;10.240;2023-05-14T10:55:05;3.72;;;2.15;;
80653;SDS011;70020;45.524;10.240;2023-05-14T10:57:33;4.55;;;2.22;;
80653;SDS011;70020;45.524;10.240;2023-05-14T11:00:00;4.80;;;2.20;;
80653;SDS011;70020;45.524;10.240;2023-05-14T11:02:26;4.00;;;2.25;;
80653;SDS011;70020;45.524;10.240;2023-05-14T11:04:58;4.45;;;2.45;;
80653;SDS011;70020;45.524;10.240;2023-05-14T11:07:31;3.72;;;2.25;;
80653;SDS011;70020;45.524;10.240;2023-05-14T11:12:53;6.60;;;2.95;;
80653;SDS011;70020;45.524;10.240;2023-05-14T11:15:22;4.43;;;2.50;;
80653;SDS011;70020;45.524;10.240;2023-05-14T11:17:49;3.08;;;2.38;;
80653;SDS011;70020;45.524;10.240;2023-05-14T11:20:15;6.97;;;2.58;;
80653;SDS011;70020;45.524;10.240;2023-05-14T11:22:42;5.63;;;2.90;;
80653;SDS011;70020;45.524;10.240;2023-05-14T11:25:09;5.28;;;2.60;;
80653;SDS011;70020;45.524;10.240;2023-05-14T11:27:38;4.70;;;3.40;;
80653;SDS011;70020;45.524;10.240;2023-05-14T11:32:30;8.90;;;3.08;;
80653;SDS011;70020;45.524;10.240;2023-05-14T11:34:57;6.22;;;3.50;;
80653;SDS011;70020;45.524;10.240;2023-05-14T11:37:23;7.30;;;3.65;;
80653;SDS011;70020;45.524;10.240;2023-05-14T11:39:50;7.82;;;4.70;;
80653;SDS011;70020;45.524;10.240;2023-05-14T11:42:17;6.68;;;4.00;;
80653;SDS011;70020;45.524;10.240;2023-05-14T11:44:45;4.78;;;3.63;;
80653;SDS011;70020;45.524;10.240;2023-05-14T11:47:12;6.03;;;3.22;;
80653;SDS011;70020;45.524;10.240;2023-05-14T11:49:38;6.35;;;3.30;;
80653;SDS011;70020;45.524;10.240;2023-05-14T11:52:04;6.03;;;3.93;;
80653;SDS011;70020;45.524;10.240;2023-05-14T11:54:31;10.60;;;3.90;;
80653;SDS011;70020;45.524;10.240;2023-05-14T11:56:59;5.65;;;3.15;;
80653;SDS011;70020;45.524;10.240;2023-05-14T11:59:30;5.65;;;3.65;;
80653;SDS011;70020;45.524;10.240;2023-05-14T12:01:57;7.53;;;3.90;;
80653;SDS011;70020;45.524;10.240;2023-05-14T12:04:23;5.30;;;3.42;;
80653;SDS011;70020;45.524;10.240;2023-05-14T12:06:50;4.43;;;3.50;;
80653;SDS011;70020;45.524;10.240;2023-05-14T12:09:23;5.88;;;3.50;;
80653;SDS011;70020;45.524;10.240;2023-05-14T12:11:50;6.45;;;3.33;;
80653;SDS011;70020;45.524;10.240;2023-05-14T12:14:23;5.80;;;3.22;;
80653;SDS011;70020;45.524;10.240;2023-05-14T12:16:49;6.22;;;2.65;;
80653;SDS011;70020;45.524;10.240;2023-05-14T12:19:16;6.85;;;2.60;;
80653;SDS011;70020;45.524;10.240;2023-05-14T12:21:43;3.58;;;2.15;;
80653;SDS011;70020;45.524;10.240;2023-05-14T12:24:19;5.10;;;1.95;;
80653;SDS011;70020;45.524;10.240;2023-05-14T12:26:46;3.22;;;2.10;;
80653;SDS011;70020;45.524;10.240;2023-05-14T12:29:13;5.03;;;2.50;;
80653;SDS011;70020;45.524;10.240;2023-05-14T12:31:46;4.82;;;2.60;;
80653;SDS011;70020;45.524;10.240;2023-05-14T12:34:13;3.00;;;2.28;;
80653;SDS011;70020;45.524;10.240;2023-05-14T12:39:05;4.32;;;2.50;;
80653;SDS011;70020;45.524;10.240;2023-05-14T12:41:30;5.00;;;2.40;;
80653;SDS011;70020;45.524;10.240;2023-05-14T12:43:57;4.55;;;2.42;;
80653;SDS011;70020;45.524;10.240;2023-05-14T12:46:24;3.67;;;2.70;;
80653;SDS011;70020;45.524;10.240;2023-05-14T12:48:52;4.45;;;2.88;;
80653;SDS011;70020;45.524;10.240;2023-05-14T12:51:18;4.13;;;2.60;;
80653;SDS011;70020;45.524;10.240;2023-05-14T12:53:44;7.45;;;4.65;;
80653;SDS011;70020;45.524;10.240;2023-05-14T12:56:10;7.90;;;4.82;;
80653;SDS011;70020;45.524;10.240;2023-05-14T12:58:37;6.22;;;3.97;;
80653;SDS011;70020;45.524;10.240;2023-05-14T13:01:02;5.50;;;2.80;;
80653;SDS011;70020;45.524;10.240;2023-05-14T13:03:29;5.65;;;3.70;;
80653;SDS011;70020;45.524;10.240;2023-05-14T13:05:54;5.03;;;3.93;;
80653;SDS011;70020;45.524;10.240;2023-05-14T13:08:20;6.60;;;3.70;;
80653;SDS011;70020;45.524;10.240;2023-05-14T13:10:48;5.15;;;3.70;;
80653;SDS011;70020;45.524;10.240;2023-05-14T13:13:15;4.25;;;3.70;;
80653;SDS011;70020;45.524;10.240;2023-05-14T13:15:41;5.75;;;4.13;;
80653;SDS011;70020;45.524;10.240;2023-05-14T13:18:07;5.15;;;3.75;;
80653;SDS011;70020;45.524;10.240;2023-05-14T13:20:33;6.70;;;4.53;;
80653;SDS011;70020;45.524;10.240;2023-05-14T13:22:59;10.32;;;6.85;;
80653;SDS011;70020;45.524;10.240;2023-05-14T13:25:28;8.60;;;5.78;;
80653;SDS011;70020;45.524;10.240;2023-05-14T13:27:54;10.57;;;7.93;;
80653;SDS011;70020;45.524;10.240;2023-05-14T13:30:20;10.25;;;8.63;;
80653;SDS011;70020;45.524;10.240;2023-05-14T13:32:46;10.13;;;7.63;;
80653;SDS011;70020;45.524;10.240;2023-05-14T13:35:12;10.20;;;8.48;;
80653;SDS011;70020;45.524;10.240;2023-05-14T13:37:38;9.13;;;8.13;;
80653;SDS011;70020;45.524;10.240;2023-05-14T13:40:04;7.87;;;7.07;;
80653;SDS011;70020;45.524;10.240;2023-05-14T13:42:33;8.73;;;7.82;;
80653;SDS011;70020;45.524;10.240;2023-05-14T13:44:59;9.10;;;7.68;;
80653;SDS011;70020;45.524;10.240;2023-05-14T13:47:25;10.47;;;8.40;;
80653;SDS011;70020;45.524;10.240;2023-05-14T13:49:51;26.52;;;10.40;;
80653;SDS011;70020;45.524;10.240;2023-05-14T13:52:17;11.73;;;8.73;;
80653;SDS011;70020;45.524;10.240;2023-05-14T13:54:43;11.23;;;8.70;;
80653;SDS011;70020;45.524;10.240;2023-05-14T13:57:08;11.53;;;8.60;;
80653;SDS011;70020;45.524;10.240;2023-05-14T13:59:34;12.00;;;8.75;;
80653;SDS011;70020;45.524;10.240;2023-05-14T14:02:00;11.82;;;8.18;;
80653;SDS011;70020;45.524;10.240;2023-05-14T14:04:26;10.50;;;8.02;;
80653;SDS011;70020;45.524;10.240;2023-05-14T14:06:53;10.43;;;7.18;;
80653;SDS011;70020;45.524;10.240;2023-05-14T14:09:19;9.00;;;6.97;;
80653;SDS011;70020;45.524;10.240;2023-05-14T14:11:45;10.65;;;6.97;;
80653;SDS011;70020;45.524;10.240;2023-05-14T14:14:12;9.38;;;7.78;;
80653;SDS011;70020;45.524;10.240;2023-05-14T14:16:37;10.57;;;7.70;;
80653;SDS011;70020;45.524;10.240;2023-05-14T14:19:04;10.45;;;8.02;;
80653;SDS011;70020;45.524;10.240;2023-05-14T14:21:29;10.73;;;7.60;;
80653;SDS011;70020;45.524;10.240;2023-05-14T14:26:22;10.00;;;7.93;;
80653;SDS011;70020;45.524;10.240;2023-05-14T14:28:47;9.40;;;7.03;;
80653;SDS011;70020;45.524;10.240;2023-05-14T14:31:13;8.50;;;6.65;;
80653;SDS011;70020;45.524;10.240;2023-05-14T14:33:38;8.20;;;6.70;;
80653;SDS011;70020;45.524;10.240;2023-05-14T14:36:04;7.45;;;6.53;;
80653;SDS011;70020;45.524;10.240;2023-05-14T14:38:30;9.13;;;6.35;;
80653;SDS011;70020;45.524;10.240;2023-05-14T14:40:56;7.55;;;5.97;;
80653;SDS011;70020;45.524;10.240;2023-05-14T14:43:22;8.15;;;6.47;;
80653;SDS011;70020;45.524;10.240;2023-05-14T14:48:30;6.95;;;5.50;;
80653;SDS011;70020;45.524;10.240;2023-05-14T14:51:01;8.07;;;5.65;;
80653;SDS011;70020;45.524;10.240;2023-05-14T14:53:28;11.73;;;5.90;;
80653;SDS011;70020;45.524;10.240;2023-05-14T14:55:55;9.07;;;5.85;;
80653;SDS011;70020;45.524;10.240;2023-05-14T14:58:22;6.68;;;5.28;;
80653;SDS011;70020;45.524;10.240;2023-05-14T15:00:51;5.95;;;5.07;;
80653;SDS011;70020;45.524;10.240;2023-05-14T15:03:17;6.35;;;5.30;;
80653;SDS011;70020;45.524;10.240;2023-05-14T15:05:43;6.93;;;5.45;;
80653;SDS011;70020;45.524;10.240;2023-05-14T15:10:36;6.55;;;5.00;;
80653;SDS011;70020;45.524;10.240;2023-05-14T15:13:02;6.22;;;5.30;;
80653;SDS011;70020;45.524;10.240;2023-05-14T15:15:29;6.65;;;5.28;;
80653;SDS011;70020;45.524;10.240;2023-05-14T15:17:55;7.03;;;5.13;;
80653;SDS011;70020;45.524;10.240;2023-05-14T15:20:21;7.20;;;4.90;;